Skip Navigation Links
NOAA logo - Click to go to the NOAA homepage
NOAA's National Weather Service
Alaska Aviation Weather Unit
  NWS logo - Click to go to the NWS homepage
Left Navbar Graphic     19 AKDT = 03 GMT

   
NOAA is celebrating 200 years of science, service, and stewardship. Visit the NOAA 200th celebration Web site to learn more.
USA.gov is the U.S. Government's official Web portal to all Federal, state and local government Web resources and services.
Facebook
NWS on Facebook

Important Change Regarding the AAWU Web Presence

 

Over the last several months, the AAWU has been working to navigate its webpages to a nationally supported server. Security, as well as other needs, have necessitated the change.  In the process, we have made an effort to enhance the functionality of our website, as well as some of our products. As of June 20, 2017, aawu.arh.noaa.gov will be discontinued. The new AAWU web address is weather.gov/aawu. It is now live and will run in-parallel with the old site until it is discontinued. Please send any feedback or questions regarding the new webpages to nws.ar.aawu.webauthors@noaa.gov.  Thank you for your patience during this time of transition.
AAWU Home :: Display TAF Add Bookmark
TAF PACD 250101Z 2501/2524 25015G25KT P6SM VCSH SCT020 BKN040
      TEMPO 2501/2503 23011KT 3SM SHRA BR BKN015
     FM252100 25017KT P6SM -SHRA SCT025 BKN050=
METAR PACD 242153Z 26020KT 10SM FEW043 SCT050 07/02 A3006=

METAR PACD 242253Z 26014G22KT 10SM BKN070 09/03 A3006=

METAR PACD 242353Z 25019KT 8SM FEW030 FEW038 OVC049 07/02 A3008=

PACD 250015Z 19008KT 5SM -RA FEW018 BKN023 OVC029 04/02 A3009=

SPECI PACD 250015Z 19008KT 5SM -RA FEW018 BKN023 OVC029 04/02 A3009 RMK
     AO2 RAB2356 P0002 T00440022=

METAR PACD 250053Z 24011KT 5SM RA BR OVC019 04/03 A3009=

METAR PACD 250153Z AUTO 26013G20KT 10SM -RA SCT019 BKN023 OVC029 06/04
     A3009=

METAR PACD 250253Z AUTO 27021G26KT 10SM SCT019 BKN027 OVC085 06/04 A3009
     RMK AO2 PK WND 22027/0200 RAE44 SLP190 P0002 60016 T00610039
     50003 TSNO=


NOAA's National Weather Service
Alaska Aviation Weather Unit
6930 Sand Lake Road
Anchorage, AK 99502-1845
Disclaimer
Credits
Glossary
Privacy Policy
About Us
Career Opportunities
Contact AAWU Internet Services Site last modified: April, 17th 2012